Time;durP1;ratioP1;P1;durP2;ratioP2;P2;SDS_P1;SDS_P2;PMS_P1;PMS_P2;Temp;Humidity;BMP_temperature;BMP_pressure;BME280_temperature;BME280_humidity;BME280_pressure;Samples;Min_cycle;Max_cycle;Signal;HPM_P1;HPM_P2
2021/03/27 00:05:08;;;;;;;65.15;34.65;;;;;;;7.78;62.64;98993.91;239532;1196;23121;-74
2021/03/27 00:10:24;;;;;;;72.03;36.37;;;;;;;7.83;62.08;98993.10;239799;1193;23132;-74
2021/03/27 00:15:45;;;;;;;70.20;35.55;;;;;;;7.90;61.87;98988.31;239248;1198;24760;-74
2021/03/27 00:21:17;;;;;;;70.10;36.00;;;;;;;7.95;61.80;98977.66;239778;1193;23234;-74
2021/03/27 00:26:42;;;;;;;82.20;37.27;;;;;;;8.02;61.94;98982.73;239654;1196;23130;-74
2021/03/27 00:32:02;;;;;;;73.23;36.97;;;;;;;8.13;62.12;98980.84;239574;1196;23105;-74
2021/03/27 00:37:12;;;;;;;70.57;35.93;;;;;;;8.22;61.69;98981.92;239597;1199;23109;-75
2021/03/27 00:42:25;;;;;;;67.00;35.43;;;;;;;8.26;61.38;98974.20;239616;1193;23120;-73
2021/03/27 00:47:32;;;;;;;61.90;34.35;;;;;;;8.24;61.70;98963.80;239764;1193;23180;-74
2021/03/27 00:52:42;;;;;;;59.73;31.37;;;;;;;8.15;61.11;98952.83;239837;1193;23127;-73
2021/03/27 00:58:01;;;;;;;58.63;31.73;;;;;;;8.02;61.38;98950.72;239564;1193;23097;-74
2021/03/27 01:03:10;;;;;;;60.53;31.70;;;;;;;7.86;61.15;98939.22;239502;1193;23129;-74
2021/03/27 01:08:34;;;;;;;62.50;34.03;;;;;;;7.68;60.83;98933.36;239516;1198;23180;-75
2021/03/27 01:13:59;;;;;;;63.40;33.23;;;;;;;7.51;61.43;98932.78;239649;1193;23112;-75
2021/03/27 01:19:31;;;;;;;59.60;31.20;;;;;;;7.32;61.34;98935.95;239616;1196;23152;-74
2021/03/27 01:24:35;;;;;;;52.23;28.03;;;;;;;7.16;61.92;98927.13;239559;1196;23308;-75
2021/03/27 01:29:56;;;;;;;66.33;32.07;;;;;;;7.01;61.59;98927.86;239792;1193;28678;-75
2021/03/27 01:35:05;;;;;;;;;;;;;;;6.91;62.13;98927.84;239429;1201;23105;-73
2021/03/27 01:40:20;;;;;;;69.10;34.70;;;;;;;6.77;62.69;98927.50;239629;1193;24520;-74
2021/03/27 01:46:00;;;;;;;71.27;38.03;;;;;;;6.64;62.46;98923.42;239663;1196;23584;-74
2021/03/27 01:51:28;;;;;;;61.63;32.87;;;;;;;6.47;63.12;98914.83;239726;1193;23164;-76
2021/03/27 01:57:09;;;;;;;58.10;32.77;;;;;;;6.34;63.27;98910.77;239590;1193;23100;-75
2021/03/27 02:02:18;;;;;;;61.70;31.80;;;;;;;6.20;63.78;98901.61;239674;1193;23138;-73
2021/03/27 02:07:30;;;;;;;51.38;27.80;;;;;;;6.08;63.49;98894.63;239453;1196;23132;-74
2021/03/27 02:12:50;;;;;;;60.37;28.40;;;;;;;6.02;63.88;98897.53;239568;1196;23181;-74
2021/03/27 02:17:59;;;;;;;54.60;28.20;;;;;;;6.02;63.82;98897.53;239652;1196;23192;-74
2021/03/27 02:23:29;;;;;;;54.23;28.80;;;;;;;6.02;63.86;98893.00;239763;1198;26358;-75
2021/03/27 02:28:35;;;;;;;53.55;27.65;;;;;;;6.01;64.39;98887.94;239593;1193;23128;-74
2021/03/27 02:33:47;;;;;;;53.10;27.47;;;;;;;5.98;64.18;98891.91;239737;1198;23199;-74
2021/03/27 02:39:14;;;;;;;48.57;25.67;;;;;;;5.92;64.04;98884.92;239612;1196;23095;-74
2021/03/27 02:44:56;;;;;;;45.20;23.70;;;;;;;5.83;63.89;98896.03;239568;1193;23122;-74
2021/03/27 02:50:29;;;;;;;40.23;21.53;;;;;;;5.74;64.15;98894.88;239477;1196;23139;-75
2021/03/27 02:55:42;;;;;;;42.65;21.05;;;;;;;5.65;64.06;98883.09;239668;1196;23154;-74
2021/03/27 03:01:09;;;;;;;50.45;22.30;;;;;;;5.60;64.23;98881.20;239488;1196;23092;-75
2021/03/27 03:06:30;;;;;;;42.63;21.37;;;;;;;5.61;64.35;98872.19;239629;1193;23103;-74
2021/03/27 03:11:52;;;;;;;43.20;23.03;;;;;;;5.65;64.88;98873.28;239622;1196;23234;-73
2021/03/27 03:17:14;;;;;;;38.37;21.33;;;;;;;5.68;64.40;98871.16;239645;1193;23103;-74
2021/03/27 03:22:33;;;;;;;39.30;20.73;;;;;;;5.68;64.50;98865.84;239885;1193;27361;-74
2021/03/27 03:27:42;;;;;;;35.25;19.25;;;;;;;5.66;64.03;98858.91;239625;1193;23109;-73
2021/03/27 03:33:23;;;;;;;37.83;19.50;;;;;;;5.62;64.25;98863.16;239836;1193;23102;-73
2021/03/27 03:38:46;;;;;;;38.50;20.33;;;;;;;5.54;64.21;98860.14;239631;1199;23240;-74
2021/03/27 03:44:11;;;;;;;38.65;21.05;;;;;;;5.44;64.26;98852.89;240064;1196;23182;-74
2021/03/27 03:49:53;;;;;;;45.03;23.60;;;;;;;5.37;64.28;98853.09;239592;1196;23455;-73
2021/03/27 03:55:19;;;;;;;48.63;23.65;;;;;;;5.37;64.75;98850.44;239543;1196;23124;-74
2021/03/27 04:00:30;;;;;;;44.37;22.93;;;;;;;5.42;65.17;98847.83;239635;1199;25070;-74
2021/03/27 04:05:37;;;;;;;40.00;21.15;;;;;;;5.47;64.71;98850.55;239670;1193;23108;-74
2021/03/27 04:10:42;;;;;;;39.20;21.07;;;;;;;5.48;64.65;98841.52;239575;1193;23121;-74
2021/03/27 04:15:59;;;;;;;37.90;20.30;;;;;;;5.48;64.37;98841.52;239416;1196;23122;-74
2021/03/27 04:21:17;;;;;;;37.07;19.90;;;;;;;5.53;64.33;98838.09;239735;1196;23115;-74
2021/03/27 04:26:41;;;;;;;38.17;19.63;;;;;;;5.58;64.19;98842.64;239657;1198;23091;-74
2021/03/27 04:32:11;;;;;;;34.27;19.17;;;;;;;5.57;64.16;98841.86;239624;1193;23110;-74
2021/03/27 04:37:17;;;;;;;36.90;20.07;;;;;;;5.49;63.95;98845.77;239727;1193;23166;-75
2021/03/27 04:42:22;;;;;;;47.07;23.07;;;;;;;5.45;64.17;98841.22;239664;1197;24586;-75
2021/03/27 04:47:33;;;;;;;44.97;22.37;;;;;;;5.48;64.40;98848.67;239608;1193;23276;-74
2021/03/27 04:52:43;;;;;;;50.23;23.73;;;;;;;5.57;64.32;98844.52;239629;1198;23128;-75
2021/03/27 04:58:08;;;;;;;50.40;24.15;;;;;;;5.62;64.18;98846.40;239654;1193;26074;-75
2021/03/27 05:03:31;;;;;;;42.40;21.70;;;;;;;5.57;64.42;98849.00;239776;1193;25220;-74
2021/03/27 05:08:39;;;;;;;46.83;25.30;;;;;;;5.43;64.14;98856.63;239590;1193;23194;-74
2021/03/27 05:14:07;;;;;;;53.45;28.55;;;;;;;5.31;64.40;98859.42;239558;1193;23266;-74
2021/03/27 05:19:32;;;;;;;58.60;31.00;;;;;;;5.20;64.71;98868.34;239617;1193;23127;-74
2021/03/27 05:24:53;;;;;;;57.57;29.70;;;;;;;5.13;64.94;98860.56;239445;1193;23126;-74
2021/03/27 05:30:19;;;;;;;64.73;32.60;;;;;;;5.19;65.21;98859.59;239763;1198;23109;-75
2021/03/27 05:36:00;;;;;;;55.15;29.85;;;;;;;5.31;65.32;98857.55;239848;1196;27540;-74
2021/03/27 05:41:21;;;;;;;72.90;33.50;;;;;;;5.49;65.68;98859.05;239655;1193;26235;-73
2021/03/27 05:46:57;;;;;;;65.05;35.05;;;;;;;5.64;65.62;98853.07;239500;1193;23125;-78
2021/03/27 05:52:39;;;;;;;60.95;33.60;;;;;;;5.80;65.25;98856.63;239734;1196;23128;-75
2021/03/27 05:58:13;;;;;;;46.60;26.30;;;;;;;5.99;65.11;98853.63;239660;1193;23248;-74
2021/03/27 06:03:26;;;;;;;47.40;24.50;;;;;;;6.23;65.05;98848.70;239857;1193;23234;-74
2021/03/27 06:08:47;;;;;;;44.47;23.60;;;;;;;6.49;64.86;98843.50;239848;1196;23125;-73
2021/03/27 06:14:06;;;;;;;40.37;21.30;;;;;;;6.81;64.28;98838.06;239717;1193;23103;-74
2021/03/27 06:19:27;;;;;;;42.67;21.80;;;;;;;7.16;63.86;98841.88;239688;1196;23555;-73
2021/03/27 06:24:57;;;;;;;35.03;20.47;;;;;;;7.55;63.63;98832.56;239648;1193;23232;-74
2021/03/27 06:30:02;;;;;;;37.20;19.97;;;;;;;7.90;63.36;98841.61;239662;1193;23122;-74
2021/03/27 06:35:15;;;;;;;39.93;21.60;;;;;;;8.20;63.13;98829.30;239694;1196;23138;-75
2021/03/27 06:40:22;;;;;;;35.53;20.43;;;;;;;8.48;62.19;98830.56;239592;1193;23104;-74
2021/03/27 06:45:44;;;;;;;39.20;22.50;;;;;;;8.75;61.42;98824.03;239465;1196;23115;-73
2021/03/27 06:51:04;;;;;;;41.80;23.43;;;;;;;9.05;60.93;98817.73;239684;1196;23279;-74
2021/03/27 06:56:29;;;;;;;41.83;24.25;;;;;;;9.31;60.36;98822.11;239658;1193;23132;-74
2021/03/27 07:01:51;;;;;;;41.80;25.00;;;;;;;9.57;59.81;98820.04;239554;1196;23162;-75
2021/03/27 07:07:29;;;;;;;44.80;22.90;;;;;;;9.82;58.96;98826.23;239623;1196;23115;-75
2021/03/27 07:12:46;;;;;;;41.65;22.23;;;;;;;10.05;58.43;98827.36;239584;1199;23116;-74
2021/03/27 07:18:14;;;;;;;37.95;20.95;;;;;;;10.26;58.55;98831.40;239775;1196;23137;-75
2021/03/27 07:23:34;;;;;;;38.17;20.83;;;;;;;10.51;58.25;98832.23;240155;1199;26006;-75
2021/03/27 07:29:30;;;;;;;32.30;19.30;;;;;;;10.83;57.83;98833.45;239760;1196;23211;-75
2021/03/27 07:35:05;;;;;;;31.67;17.83;;;;;;;11.16;56.28;98827.37;239953;1193;23106;-75
2021/03/27 07:40:29;;;;;;;28.47;16.63;;;;;;;11.47;55.67;98823.14;239914;1193;23105;-75
2021/03/27 07:46:09;;;;;;;23.93;14.37;;;;;;;11.78;53.53;98822.63;240703;1196;23118;-75
2021/03/27 07:51:40;;;;;;;23.40;12.80;;;;;;;12.11;52.41;98822.59;240379;1193;23104;-74
2021/03/27 07:57:08;;;;;;;22.80;14.23;;;;;;;12.39;51.21;98827.20;239813;1193;23104;-74
2021/03/27 08:02:11;;;;;;;21.20;13.90;;;;;;;12.65;52.02;98822.89;240170;1196;23129;-75
2021/03/27 08:07:24;;;;;;;22.30;13.20;;;;;;;12.94;51.63;98815.56;239892;1196;23137;-75
2021/03/27 08:12:48;;;;;;;20.67;12.27;;;;;;;13.24;48.95;98827.54;240016;1193;23077;-75
2021/03/27 08:18:21;;;;;;;19.40;11.50;;;;;;;13.56;48.64;98828.44;240159;1196;24760;-75
2021/03/27 08:23:36;;;;;;;18.80;11.80;;;;;;;13.89;47.35;98833.53;240303;1196;23111;-74
2021/03/27 08:29:28;;;;;;;18.50;10.40;;;;;;;14.23;46.15;98839.39;239789;1195;23105;-74
2021/03/27 08:34:38;;;;;;;19.90;10.30;;;;;;;14.61;44.80;98838.91;240003;1193;27214;-74
2021/03/27 08:40:05;;;;;;;22.60;12.40;;;;;;;14.92;46.33;98833.44;240062;1193;24900;-75
2021/03/27 08:45:31;;;;;;;17.98;10.53;;;;;;;15.09;43.94;98824.56;239731;1196;23105;-74
2021/03/27 08:50:59;;;;;;;19.20;10.90;;;;;;;15.30;42.99;98830.11;239930;1193;23109;-74
2021/03/27 08:56:19;;;;;;;20.50;12.35;;;;;;;15.38;42.74;98821.22;239840;1193;23117;-73
2021/03/27 09:01:35;;;;;;;20.05;10.95;;;;;;;15.54;42.15;98809.92;239946;1196;23094;-74
2021/03/27 09:07:03;;;;;;;21.57;10.80;;;;;;;15.70;41.19;98818.33;240173;1196;23131;-75
2021/03/27 09:12:43;;;;;;;17.80;10.25;;;;;;;15.82;40.59;98813.09;239912;1193;23125;-74
2021/03/27 09:18:06;;;;;;;19.20;10.73;;;;;;;15.89;40.79;98821.48;240000;1199;27217;-74
2021/03/27 09:23:32;;;;;;;17.75;10.90;;;;;;;15.90;40.09;98811.47;240115;1196;23112;-74
2021/03/27 09:28:35;;;;;;;18.10;10.40;;;;;;;15.95;40.28;98819.41;240001;1194;23580;-74
2021/03/27 09:33:49;;;;;;;15.45;10.05;;;;;;;16.10;38.61;98807.25;240036;1193;24522;-74
2021/03/27 09:39:08;;;;;;;18.20;9.70;;;;;;;16.28;38.47;98820.70;239818;1196;23109;-74
2021/03/27 09:44:32;;;;;;;17.98;9.68;;;;;;;16.36;38.58;98809.84;240039;1193;23137;-74
2021/03/27 09:50:02;;;;;;;18.60;9.30;;;;;;;16.48;36.82;98817.28;239998;1196;23612;-74
2021/03/27 09:55:31;;;;;;;17.60;10.20;;;;;;;16.60;38.14;98819.27;240265;1193;23113;-74
2021/03/27 10:00:55;;;;;;;16.00;9.30;;;;;;;16.81;37.06;98821.22;240083;1196;23105;-74
2021/03/27 10:06:17;;;;;;;18.00;10.30;;;;;;;17.13;39.10;98821.66;240173;1193;23102;-74
2021/03/27 10:11:26;;;;;;;15.65;8.80;;;;;;;17.34;36.70;98818.94;239934;1193;23282;-75
2021/03/27 10:16:59;;;;;;;16.95;9.15;;;;;;;17.44;37.72;98819.30;240424;1195;25044;-75
2021/03/27 10:22:28;;;;;;;15.27;8.40;;;;;;;17.48;36.05;98819.43;240129;1196;23086;-75
2021/03/27 10:28:06;;;;;;;16.70;10.40;;;;;;;17.46;37.71;98821.70;239760;1193;23119;-76
2021/03/27 10:33:27;;;;;;;16.40;9.90;;;;;;;17.58;37.05;98819.00;240181;1193;23099;-76
2021/03/27 10:38:55;;;;;;;15.10;9.60;;;;;;;17.77;38.25;98825.85;239878;1193;23253;-76
2021/03/27 10:44:25;;;;;;;;;;;;;;;17.94;34.65;98824.90;239744;1196;23221;-76
2021/03/27 10:49:48;;;;;;;17.50;8.98;;;;;;;17.94;34.17;98820.26;240116;1196;21596;-76
2021/03/27 10:55:05;;;;;;;13.80;8.10;;;;;;;17.79;33.00;98821.69;239904;1193;23188;-76
2021/03/27 11:00:39;;;;;;;16.60;8.48;;;;;;;18.03;34.26;98825.57;239916;1193;23115;-76
2021/03/27 11:06:04;;;;;;;14.03;8.43;;;;;;;18.16;35.56;98831.83;239956;1196;23115;-76
2021/03/27 11:12:05;;;;;;;14.15;7.68;;;;;;;18.08;31.67;98835.42;240032;1196;23115;-74
2021/03/27 11:17:46;;;;;;;16.90;7.50;;;;;;;17.75;32.70;98847.86;239471;1199;23145;-76
2021/03/27 11:23:01;;;;;;;12.55;8.05;;;;;;;17.51;32.91;98861.31;239634;1196;23201;-75
2021/03/27 11:28:21;;;;;;;15.27;7.97;;;;;;;17.20;34.51;98857.89;240115;1193;23212;-75
2021/03/27 11:33:50;;;;;;;16.80;11.30;;;;;;;17.04;35.50;98865.00;240076;1193;23117;-75
2021/03/27 11:39:12;;;;;;;11.80;7.67;;;;;;;16.97;35.71;98897.20;240043;1196;23138;-75
2021/03/27 11:44:40;;;;;;;13.25;8.15;;;;;;;16.86;35.92;98889.45;240220;1193;23115;-73
2021/03/27 11:49:52;;;;;;;13.60;8.50;;;;;;;17.15;36.31;98887.06;240260;1193;23180;-75
2021/03/27 11:55:18;;;;;;;13.70;7.25;;;;;;;17.38;35.02;98890.25;240095;1193;23128;-75
2021/03/27 12:06:37;;;;;;;11.50;8.70;;;;;;;17.39;35.96;98913.48;240171;1195;23105;-75
2021/03/27 12:11:54;;;;;;;14.40;9.40;;;;;;;17.31;36.42;98922.48;239579;1197;23097;-75
2021/03/27 12:17:31;;;;;;;14.73;9.27;;;;;;;17.04;37.37;98940.78;239910;1193;28335;-75
2021/03/27 12:22:44;;;;;;;12.95;7.60;;;;;;;16.63;38.48;98963.87;239345;1196;23107;-74
2021/03/27 12:28:12;;;;;;;11.97;8.17;;;;;;;16.34;39.57;98971.59;239815;1196;23125;-74
2021/03/27 12:33:35;;;;;;;;;;;;;;;15.93;40.95;98980.23;239767;1196;23111;-75
2021/03/27 12:39:06;;;;;;;12.35;8.90;;;;;;;15.57;42.49;98985.59;240106;1193;23126;-74
2021/03/27 12:44:20;;;;;;;14.20;9.20;;;;;;;15.49;44.88;98991.77;239752;1196;23243;-75
2021/03/27 12:49:57;;;;;;;13.20;9.80;;;;;;;15.29;46.90;99006.66;239700;1193;27316;-75
2021/03/27 12:55:02;;;;;;;15.20;10.70;;;;;;;15.09;47.25;99015.33;240067;1193;23097;-75
2021/03/27 13:00:43;;;;;;;21.35;16.05;;;;;;;14.88;47.60;99005.88;239801;1196;23153;-76
2021/03/27 13:05:55;;;;;;;;;;;;;;;14.81;48.46;99000.13;240002;1201;23131;-75
2021/03/27 13:11:14;;;;;;;19.50;12.83;;;;;;;14.66;49.01;99008.63;239630;1193;21624;-75
2021/03/27 13:16:58;;;;;;;17.80;12.10;;;;;;;14.31;49.53;99021.87;239840;1193;26107;-75
2021/03/27 13:22:09;;;;;;;15.60;10.80;;;;;;;13.94;50.13;99029.22;239177;1196;27224;-75
2021/03/27 13:27:17;;;;;;;14.20;10.93;;;;;;;13.61;51.18;99046.34;239693;1193;23112;-75
2021/03/27 13:32:28;;;;;;;16.65;10.65;;;;;;;13.36;52.49;99053.05;239530;1194;23242;-75
2021/03/27 13:37:40;;;;;;;17.40;11.40;;;;;;;13.09;53.83;99062.66;239939;1193;23252;-76
2021/03/27 13:42:58;;;;;;;16.20;10.85;;;;;;;12.75;55.00;99066.49;239837;1193;23109;-75
2021/03/27 13:48:03;;;;;;;15.20;10.75;;;;;;;12.43;56.42;99094.95;239868;1196;23099;-75
2021/03/27 13:53:22;;;;;;;17.97;11.60;;;;;;;11.97;59.45;99111.73;239957;1197;23163;-75
2021/03/27 13:58:35;;;;;;;18.60;12.30;;;;;;;11.49;61.27;99122.51;239706;1198;23098;-76
2021/03/27 14:04:01;;;;;;;16.53;11.03;;;;;;;11.10;62.84;99130.39;240065;1193;23130;-76
2021/03/27 14:09:09;;;;;;;14.10;9.97;;;;;;;10.78;64.49;99130.95;239552;1193;23088;-75
2021/03/27 14:14:20;;;;;;;16.67;11.30;;;;;;;10.51;66.20;99134.91;239835;1193;23084;-75
2021/03/27 14:19:39;;;;;;;13.73;10.63;;;;;;;10.32;67.19;99132.04;239619;1193;23244;-76
2021/03/27 14:24:49;;;;;;;16.50;11.20;;;;;;;10.13;67.50;99125.73;239590;1193;23096;-75
2021/03/27 14:30:15;;;;;;;14.30;10.43;;;;;;;9.97;68.55;99143.76;239718;1196;23201;-75
2021/03/27 14:35:40;;;;;;;16.90;10.90;;;;;;;9.80;69.31;99130.73;239725;1196;23131;-76
2021/03/27 14:41:08;;;;;;;14.90;10.35;;;;;;;9.69;70.08;99154.03;239814;1193;23109;-75
2021/03/27 14:46:33;;;;;;;15.30;11.33;;;;;;;9.59;70.81;99181.61;239753;1193;23118;-76
2021/03/27 14:52:03;;;;;;;15.05;9.10;;;;;;;9.53;71.38;99177.36;239890;1198;22959;-75
2021/03/27 14:57:30;;;;;;;13.90;9.45;;;;;;;9.44;71.69;99178.98;239532;1193;23132;-76
2021/03/27 15:02:39;;;;;;;13.35;9.65;;;;;;;9.31;72.22;99178.45;239862;1193;23098;-77
2021/03/27 15:08:01;;;;;;;12.87;9.07;;;;;;;9.31;72.54;99181.13;239781;1193;24765;-78
2021/03/27 15:13:13;;;;;;;13.50;9.70;;;;;;;9.32;73.14;99181.95;239750;1196;23119;-78
2021/03/27 15:18:32;;;;;;;8.53;6.13;;;;;;;9.34;73.09;99185.14;239721;1193;26348;-77
2021/03/27 15:23:48;;;;;;;16.17;9.53;;;;;;;9.24;72.80;99188.63;239652;1193;23241;-77
2021/03/27 15:29:25;;;;;;;13.80;10.07;;;;;;;9.19;73.54;99192.12;239567;1196;24741;-77
2021/03/27 15:34:48;;;;;;;13.15;8.75;;;;;;;9.16;73.63;99195.30;239802;1193;23246;-77
2021/03/27 15:39:56;;;;;;;12.07;8.40;;;;;;;9.19;73.98;99193.97;239963;1193;23107;-77
2021/03/27 15:45:21;;;;;;;10.00;6.70;;;;;;;9.17;74.72;99222.86;239482;1193;23118;-78
2021/03/27 15:50:41;;;;;;;9.50;6.00;;;;;;;9.05;74.07;99199.05;239795;1196;23119;-78
2021/03/27 15:55:58;;;;;;;7.75;5.50;;;;;;;8.95;73.97;99180.36;239368;1196;23181;-77
2021/03/27 16:01:10;;;;;;;8.00;4.77;;;;;;;8.91;74.11;99188.09;239656;1193;23099;-77
2021/03/27 16:06:29;;;;;;;8.00;5.20;;;;;;;8.87;74.69;99155.78;239684;1199;23102;-76
2021/03/27 16:11:43;;;;;;;7.07;4.13;;;;;;;8.84;73.86;99187.56;239629;1193;23102;-77
2021/03/27 16:17:10;;;;;;;6.70;3.87;;;;;;;8.77;74.24;99205.72;239543;1199;23125;-76
2021/03/27 16:22:33;;;;;;;6.90;4.05;;;;;;;8.67;74.58;99220.66;239490;1196;23167;-77
2021/03/27 16:28:02;;;;;;;22.23;14.00;;;;;;;8.65;74.46;99212.13;239801;1199;23105;-77
2021/03/27 16:33:05;;;;;;;10.25;6.20;;;;;;;8.75;75.82;99215.89;239739;1198;23237;-78
2021/03/27 16:38:25;;;;;;;8.27;5.13;;;;;;;8.89;76.05;99216.96;239688;1198;23097;-77
2021/03/27 16:43:43;;;;;;;10.25;6.10;;;;;;;8.97;75.55;99218.28;239733;1194;27227;-76
2021/03/27 16:49:12;;;;;;;11.10;6.30;;;;;;;8.90;75.12;99261.33;239680;1196;23129;-75
2021/03/27 16:54:26;;;;;;;6.95;4.45;;;;;;;8.58;74.34;99270.33;239570;1193;23101;-76
2021/03/27 16:59:51;;;;;;;16.27;9.63;;;;;;;8.27;75.11;99283.54;239587;1193;23448;-78
2021/03/27 17:05:26;;;;;;;9.10;5.47;;;;;;;8.03;74.98;99291.96;239804;1193;26214;-77
2021/03/27 17:10:38;;;;;;;12.60;6.60;;;;;;;7.89;76.15;99301.49;239881;1199;24711;-76
2021/03/27 17:15:57;;;;;;;9.80;7.30;;;;;;;7.79;76.11;99290.73;239762;1199;23141;-76
2021/03/27 17:21:39;;;;;;;10.63;7.57;;;;;;;7.74;76.45;99306.70;239627;1193;23791;-77
2021/03/27 17:27:01;;;;;;;10.57;6.90;;;;;;;7.68;76.79;99317.34;239735;1193;23136;-76
2021/03/27 17:32:10;;;;;;;10.07;6.60;;;;;;;7.68;76.71;99314.68;239817;1193;23215;-77
2021/03/27 17:37:26;;;;;;;10.57;6.27;;;;;;;7.69;76.83;99328.80;240018;1193;23128;-77
2021/03/27 17:42:50;;;;;;;7.37;6.13;;;;;;;7.67;76.92;99318.40;239701;1195;23127;-77
2021/03/27 17:48:21;;;;;;;9.87;6.33;;;;;;;7.67;76.73;99330.94;240149;1196;23110;-77
2021/03/27 17:53:44;;;;;;;10.08;6.85;;;;;;;7.70;76.57;99327.76;239785;1193;23090;-77
2021/03/27 17:58:51;;;;;;;7.75;5.60;;;;;;;7.70;76.38;99344.55;239775;1196;23129;-77
2021/03/27 18:03:53;;;;;;;8.90;5.35;;;;;;;7.55;76.92;99344.42;239906;1193;25997;-78
2021/03/27 18:09:02;;;;;;;12.60;8.30;;;;;;;7.45;76.68;99344.36;239769;1196;23189;-77
2021/03/27 18:14:31;;;;;;;10.93;7.93;;;;;;;7.35;76.83;99353.06;239790;1193;23109;-77
2021/03/27 18:19:56;;;;;;;11.73;8.43;;;;;;;7.26;77.36;99344.73;239812;1193;23132;-77
2021/03/27 18:25:17;;;;;;;22.80;12.57;;;;;;;7.27;77.46;99348.98;239791;1199;23337;-77
2021/03/27 18:30:38;;;;;;;54.30;31.27;;;;;;;7.26;77.74;99360.72;239865;1193;23180;-77
2021/03/27 18:35:43;;;;;;;58.05;33.25;;;;;;;7.30;78.67;99359.16;239862;1193;23147;-77
2021/03/27 18:40:56;;;;;;;54.17;33.90;;;;;;;7.36;78.34;99374.13;239749;1196;23125;-77
2021/03/27 18:46:13;;;;;;;49.10;28.57;;;;;;;7.45;79.27;99376.34;239844;1193;23116;-77
2021/03/27 18:51:18;;;;;;;31.00;20.05;;;;;;;7.56;79.08;99388.70;239695;1193;23118;-77
2021/03/27 18:56:25;;;;;;;29.50;19.27;;;;;;;7.58;78.49;99385.78;239884;1193;23865;-76
2021/03/27 19:01:27;;;;;;;30.10;18.50;;;;;;;7.45;78.54;99395.00;239989;1193;23102;-76
2021/03/27 19:06:34;;;;;;;32.70;21.60;;;;;;;7.41;78.50;99367.23;239939;1193;23162;-76
2021/03/27 19:11:44;;;;;;;28.87;17.80;;;;;;;7.39;78.59;99366.67;239829;1193;23308;-76
2021/03/27 19:16:49;;;;;;;24.25;15.28;;;;;;;7.39;78.91;99372.83;239808;1196;23105;-76
2021/03/27 19:22:14;;;;;;;26.80;17.23;;;;;;;7.34;78.37;99389.59;239886;1194;23113;-76
2021/03/27 19:27:27;;;;;;;35.03;21.10;;;;;;;7.21;78.60;99383.84;239603;1198;23279;-77
2021/03/27 19:32:39;;;;;;;32.07;18.37;;;;;;;7.06;78.13;99381.81;239788;1196;23115;-77
2021/03/27 19:37:45;;;;;;;27.30;16.90;;;;;;;6.89;78.83;99403.20;239736;1198;23118;-76
2021/03/27 19:43:11;;;;;;;48.23;28.67;;;;;;;6.71;79.24;99394.45;239803;1193;23185;-77
2021/03/27 19:48:21;;;;;;;42.47;28.00;;;;;;;6.63;79.64;99446.30;239679;1199;23115;-77
2021/03/27 19:53:30;;;;;;;18.87;11.17;;;;;;;6.56;78.75;99493.58;239998;1196;23118;-77
2021/03/27 19:58:44;;;;;;;8.10;5.00;;;;;;;6.30;77.33;99487.06;239669;1199;23109;-78
2021/03/27 20:04:15;;;;;;;8.00;4.80;;;;;;;5.96;77.27;99513.59;239602;1196;23105;-77
2021/03/27 20:09:36;;;;;;;7.10;3.60;;;;;;;5.63;77.68;99523.91;239827;1193;23119;-76
2021/03/27 20:14:51;;;;;;;4.30;2.70;;;;;;;5.34;77.84;99530.26;239916;1199;23099;-76
2021/03/27 20:20:16;;;;;;;5.73;2.90;;;;;;;5.11;78.17;99532.72;239787;1199;23193;-77
2021/03/27 20:25:43;;;;;;;4.55;2.80;;;;;;;4.91;78.51;99532.27;239778;1193;23132;-77
2021/03/27 20:31:04;;;;;;;4.33;2.90;;;;;;;4.82;78.94;99534.48;239750;1193;23128;-77
2021/03/27 20:36:32;;;;;;;6.80;3.30;;;;;;;4.80;78.91;99544.54;239776;1193;23098;-76
2021/03/27 20:42:12;;;;;;;3.70;2.90;;;;;;;4.84;79.18;99550.17;239608;1194;23272;-77
2021/03/27 20:47:41;;;;;;;;;;;;;;;4.84;78.95;99556.31;239647;1200;23109;-77
2021/03/27 20:52:56;;;;;;;5.40;3.40;;;;;;;4.81;78.92;99556.75;239687;1198;21618;-77
2021/03/27 20:58:39;;;;;;;5.33;3.37;;;;;;;4.87;79.11;99557.67;239603;1196;25968;-77
2021/03/27 21:03:46;;;;;;;4.35;2.70;;;;;;;4.93;78.85;99565.53;239436;1196;23114;-76
2021/03/27 21:08:59;;;;;;;4.90;3.10;;;;;;;4.95;78.73;99583.88;239671;1193;23265;-77
2021/03/27 21:14:11;;;;;;;3.83;2.90;;;;;;;4.97;78.86;99587.13;239798;1198;27407;-77
2021/03/27 21:19:47;;;;;;;7.95;4.75;;;;;;;4.99;78.98;99582.38;239991;1193;23282;-77
2021/03/27 21:24:59;;;;;;;9.90;5.20;;;;;;;4.99;78.96;99589.55;239750;1193;23102;-76
2021/03/27 21:30:08;;;;;;;8.70;5.50;;;;;;;4.94;78.92;99595.56;239711;1199;23109;-77
2021/03/27 21:35:43;;;;;;;10.53;6.10;;;;;;;4.79;78.71;99603.97;239615;1193;23135;-76
2021/03/27 21:40:50;;;;;;;7.60;4.60;;;;;;;4.57;78.67;99604.50;239783;1193;23102;-77
2021/03/27 21:46:09;;;;;;;8.80;4.97;;;;;;;4.41;78.91;99608.64;239893;1193;26127;-77
2021/03/27 21:51:42;;;;;;;9.03;4.27;;;;;;;4.25;78.64;99612.75;239744;1193;23109;-76
2021/03/27 21:57:02;;;;;;;13.50;7.13;;;;;;;4.10;79.64;99621.11;239625;1199;23198;-77
2021/03/27 22:02:26;;;;;;;15.93;7.83;;;;;;;4.03;79.85;99615.09;239867;1193;24756;-76
2021/03/27 22:07:29;;;;;;;28.40;14.07;;;;;;;3.97;79.87;99615.17;239906;1193;23166;-77
2021/03/27 22:12:37;;;;;;;43.47;19.07;;;;;;;3.82;79.52;99619.03;239742;1193;23185;-77
2021/03/27 22:18:07;;;;;;;40.93;19.00;;;;;;;3.66;80.08;99628.38;239630;1198;23149;-76
2021/03/27 22:23:27;;;;;;;44.93;22.03;;;;;;;3.54;80.30;99638.09;239647;1193;23099;-76
2021/03/27 22:29:01;;;;;;;62.43;28.50;;;;;;;3.40;80.43;99626.83;239728;1193;23109;-75
2021/03/27 22:34:05;;;;;;;66.00;27.85;;;;;;;3.37;80.83;99630.75;239685;1196;23121;-77
2021/03/27 22:39:22;;;;;;;56.35;26.30;;;;;;;3.39;81.19;99625.23;240025;1193;23233;-77
2021/03/27 22:44:30;;;;;;;55.00;24.73;;;;;;;3.46;81.40;99623.31;239584;1199;26217;-77
2021/03/27 22:49:44;;;;;;;46.85;22.70;;;;;;;3.54;81.71;99644.22;239819;1193;23102;-75
2021/03/27 22:55:05;;;;;;;43.33;20.60;;;;;;;3.55;81.70;99643.20;239417;1199;23105;-76
2021/03/27 23:00:17;;;;;;;49.35;22.10;;;;;;;3.54;81.46;99649.52;239460;1196;23111;-76
2021/03/27 23:05:44;;;;;;;44.47;20.83;;;;;;;3.51;81.40;99649.97;239409;1199;23125;-76
2021/03/27 23:10:53;;;;;;;36.40;19.13;;;;;;;3.56;81.14;99657.23;239380;1196;23163;-76
2021/03/27 23:16:20;;;;;;;27.25;13.40;;;;;;;3.60;81.96;99648.63;239672;1198;23260;-76
2021/03/27 23:21:48;;;;;;;23.35;11.35;;;;;;;3.64;81.22;99643.70;239544;1199;23129;-76
2021/03/27 23:26:50;;;;;;;14.03;8.00;;;;;;;3.63;81.57;99659.83;239638;1193;23130;-76
2021/03/27 23:32:25;;;;;;;13.47;7.60;;;;;;;3.66;81.26;99667.33;239500;1193;23126;-76
2021/03/27 23:37:46;;;;;;;11.75;6.85;;;;;;;3.67;80.92;99668.95;239627;1193;23102;-75
2021/03/27 23:43:01;;;;;;;17.37;7.90;;;;;;;3.63;80.77;99681.02;239600;1193;23101;-77
2021/03/27 23:48:32;;;;;;;15.75;7.95;;;;;;;3.51;80.51;99681.75;239478;1199;23109;-76
2021/03/27 23:53:38;;;;;;;21.27;10.50;;;;;;;3.35;80.52;99696.36;239387;1196;23127;-77
2021/03/27 23:59:07;;;;;;;20.00;9.93;;;;;;;3.26;80.59;99713.57;239467;1193;23109;-76
